sensor_id;sensor_type;location;lat;lon;timestamp;temperature;humidity
38488;DHT22;57384;51.986;4.458;2022-09-17T00:01:18;13.90;60.90
38488;DHT22;57384;51.986;4.458;2022-09-17T00:03:48;13.90;60.90
38488;DHT22;57384;51.986;4.458;2022-09-17T00:06:14;14.00;60.90
38488;DHT22;57384;51.986;4.458;2022-09-17T00:08:43;13.90;60.90
38488;DHT22;57384;51.986;4.458;2022-09-17T00:11:11;13.90;60.90
38488;DHT22;57384;51.986;4.458;2022-09-17T00:13:38;13.90;60.90
38488;DHT22;57384;51.986;4.458;2022-09-17T00:16:05;13.90;60.90
38488;DHT22;57384;51.986;4.458;2022-09-17T00:18:32;13.90;60.90
38488;DHT22;57384;51.986;4.458;2022-09-17T00:20:58;13.90;61.00
38488;DHT22;57384;51.986;4.458;2022-09-17T00:23:25;13.90;61.00
38488;DHT22;57384;51.986;4.458;2022-09-17T00:25:51;13.80;60.90
38488;DHT22;57384;51.986;4.458;2022-09-17T00:28:18;13.80;60.90
38488;DHT22;57384;51.986;4.458;2022-09-17T00:30:44;13.80;61.00
38488;DHT22;57384;51.986;4.458;2022-09-17T00:33:12;13.80;61.00
38488;DHT22;57384;51.986;4.458;2022-09-17T00:35:39;13.80;61.00
38488;DHT22;57384;51.986;4.458;2022-09-17T00:38:06;13.70;61.00
38488;DHT22;57384;51.986;4.458;2022-09-17T00:40:33;13.80;61.10
38488;DHT22;57384;51.986;4.458;2022-09-17T00:42:59;13.70;61.10
38488;DHT22;57384;51.986;4.458;2022-09-17T00:45:26;13.70;61.10
38488;DHT22;57384;51.986;4.458;2022-09-17T00:47:59;13.70;61.10
38488;DHT22;57384;51.986;4.458;2022-09-17T00:50:28;13.70;61.10
38488;DHT22;57384;51.986;4.458;2022-09-17T00:52:57;13.70;61.00
38488;DHT22;57384;51.986;4.458;2022-09-17T00:55:27;13.70;61.00
38488;DHT22;57384;51.986;4.458;2022-09-17T00:57:54;13.70;61.00
38488;DHT22;57384;51.986;4.458;2022-09-17T01:00:21;13.70;61.00
38488;DHT22;57384;51.986;4.458;2022-09-17T01:02:48;13.70;60.90
38488;DHT22;57384;51.986;4.458;2022-09-17T01:05:17;13.70;60.90
38488;DHT22;57384;51.986;4.458;2022-09-17T01:08:07;13.80;61.00
38488;DHT22;57384;51.986;4.458;2022-09-17T01:18:09;13.80;60.90
38488;DHT22;57384;51.986;4.458;2022-09-17T01:23:09;13.80;60.80
38488;DHT22;57384;51.986;4.458;2022-09-17T01:44:01;13.70;61.00
38488;DHT22;57384;51.986;4.458;2022-09-17T01:46:42;13.70;61.00
38488;DHT22;57384;51.986;4.458;2022-09-17T01:49:11;13.70;61.00
38488;DHT22;57384;51.986;4.458;2022-09-17T01:51:42;13.70;61.00
38488;DHT22;57384;51.986;4.458;2022-09-17T01:57:00;13.70;61.00
38488;DHT22;57384;51.986;4.458;2022-09-17T01:59:32;13.70;61.00
38488;DHT22;57384;51.986;4.458;2022-09-17T02:02:04;13.70;61.10
38488;DHT22;57384;51.986;4.458;2022-09-17T02:04:42;13.70;61.10
38488;DHT22;57384;51.986;4.458;2022-09-17T02:07:11;13.60;61.00
38488;DHT22;57384;51.986;4.458;2022-09-17T02:09:40;13.60;61.00
38488;DHT22;57384;51.986;4.458;2022-09-17T02:12:09;13.60;61.10
38488;DHT22;57384;51.986;4.458;2022-09-17T02:14:38;13.60;61.00
38488;DHT22;57384;51.986;4.458;2022-09-17T02:17:13;13.60;61.10
38488;DHT22;57384;51.986;4.458;2022-09-17T02:19:41;13.60;61.70
38488;DHT22;57384;51.986;4.458;2022-09-17T02:25:09;13.60;61.20
38488;DHT22;57384;51.986;4.458;2022-09-17T02:27:48;13.60;61.20
38488;DHT22;57384;51.986;4.458;2022-09-17T02:30:19;13.60;61.20
38488;DHT22;57384;51.986;4.458;2022-09-17T02:32:46;13.60;61.20
38488;DHT22;57384;51.986;4.458;2022-09-17T02:35:13;13.50;61.10
38488;DHT22;57384;51.986;4.458;2022-09-17T02:37:47;13.50;61.10
38488;DHT22;57384;51.986;4.458;2022-09-17T02:40:14;13.50;61.20
38488;DHT22;57384;51.986;4.458;2022-09-17T02:42:46;13.50;61.10
38488;DHT22;57384;51.986;4.458;2022-09-17T02:47:57;13.50;61.20
38488;DHT22;57384;51.986;4.458;2022-09-17T03:01:03;13.40;61.10
38488;DHT22;57384;51.986;4.458;2022-09-17T03:03:38;13.40;61.10
38488;DHT22;57384;51.986;4.458;2022-09-17T03:06:06;13.40;61.10
38488;DHT22;57384;51.986;4.458;2022-09-17T03:08:36;13.40;61.10
38488;DHT22;57384;51.986;4.458;2022-09-17T03:11:04;13.40;61.10
38488;DHT22;57384;51.986;4.458;2022-09-17T03:13:34;13.40;61.10
38488;DHT22;57384;51.986;4.458;2022-09-17T03:16:01;13.40;61.10
38488;DHT22;57384;51.986;4.458;2022-09-17T03:18:28;13.40;61.10
38488;DHT22;57384;51.986;4.458;2022-09-17T03:20:54;13.50;61.20
38488;DHT22;57384;51.986;4.458;2022-09-17T03:23:21;13.40;61.10
38488;DHT22;57384;51.986;4.458;2022-09-17T03:25:48;13.40;61.10
38488;DHT22;57384;51.986;4.458;2022-09-17T03:28:15;13.40;61.10
38488;DHT22;57384;51.986;4.458;2022-09-17T03:30:44;13.40;61.10
38488;DHT22;57384;51.986;4.458;2022-09-17T03:33:10;13.30;61.10
38488;DHT22;57384;51.986;4.458;2022-09-17T03:35:37;13.30;61.10
38488;DHT22;57384;51.986;4.458;2022-09-17T03:38:03;13.30;61.10
38488;DHT22;57384;51.986;4.458;2022-09-17T03:40:30;13.30;61.20
38488;DHT22;57384;51.986;4.458;2022-09-17T03:42:56;13.30;61.20
38488;DHT22;57384;51.986;4.458;2022-09-17T03:45:23;13.30;61.20
38488;DHT22;57384;51.986;4.458;2022-09-17T03:47:49;13.30;61.20
38488;DHT22;57384;51.986;4.458;2022-09-17T03:50:16;13.30;61.20
38488;DHT22;57384;51.986;4.458;2022-09-17T03:52:43;13.30;61.20
38488;DHT22;57384;51.986;4.458;2022-09-17T03:55:09;13.30;61.30
38488;DHT22;57384;51.986;4.458;2022-09-17T03:57:36;13.30;61.20
38488;DHT22;57384;51.986;4.458;2022-09-17T04:00:03;13.20;61.20
38488;DHT22;57384;51.986;4.458;2022-09-17T04:02:30;13.20;61.20
38488;DHT22;57384;51.986;4.458;2022-09-17T04:04:56;13.20;61.20
38488;DHT22;57384;51.986;4.458;2022-09-17T04:07:23;13.20;61.20
38488;DHT22;57384;51.986;4.458;2022-09-17T04:09:49;13.20;61.20
38488;DHT22;57384;51.986;4.458;2022-09-17T04:12:15;13.20;61.20
38488;DHT22;57384;51.986;4.458;2022-09-17T04:14:42;13.20;61.20
38488;DHT22;57384;51.986;4.458;2022-09-17T04:17:08;13.20;61.20
38488;DHT22;57384;51.986;4.458;2022-09-17T04:19:35;13.20;61.20
38488;DHT22;57384;51.986;4.458;2022-09-17T04:22:01;13.20;61.20
38488;DHT22;57384;51.986;4.458;2022-09-17T04:24:28;13.20;61.20
38488;DHT22;57384;51.986;4.458;2022-09-17T04:26:54;13.20;61.20
38488;DHT22;57384;51.986;4.458;2022-09-17T04:29:21;13.10;61.20
38488;DHT22;57384;51.986;4.458;2022-09-17T04:31:47;13.20;61.20
38488;DHT22;57384;51.986;4.458;2022-09-17T04:34:14;13.20;61.20
38488;DHT22;57384;51.986;4.458;2022-09-17T04:36:40;13.20;61.20
38488;DHT22;57384;51.986;4.458;2022-09-17T04:39:07;13.20;61.20
38488;DHT22;57384;51.986;4.458;2022-09-17T04:41:34;13.20;61.30
38488;DHT22;57384;51.986;4.458;2022-09-17T04:44:00;13.10;61.30
38488;DHT22;57384;51.986;4.458;2022-09-17T04:46:28;13.20;61.40
38488;DHT22;57384;51.986;4.458;2022-09-17T04:48:54;13.10;61.40
38488;DHT22;57384;51.986;4.458;2022-09-17T04:51:21;13.20;61.40
38488;DHT22;57384;51.986;4.458;2022-09-17T04:53:47;13.10;61.40
38488;DHT22;57384;51.986;4.458;2022-09-17T04:56:14;13.20;61.40
38488;DHT22;57384;51.986;4.458;2022-09-17T04:58:40;13.10;61.40
38488;DHT22;57384;51.986;4.458;2022-09-17T05:01:09;13.10;61.40
38488;DHT22;57384;51.986;4.458;2022-09-17T05:03:36;13.10;61.40
38488;DHT22;57384;51.986;4.458;2022-09-17T05:06:02;13.10;61.40
38488;DHT22;57384;51.986;4.458;2022-09-17T05:08:29;13.10;61.50
38488;DHT22;57384;51.986;4.458;2022-09-17T05:10:55;13.10;61.40
38488;DHT22;57384;51.986;4.458;2022-09-17T05:13:22;13.10;61.50
38488;DHT22;57384;51.986;4.458;2022-09-17T05:15:48;13.10;61.50
38488;DHT22;57384;51.986;4.458;2022-09-17T05:18:15;13.10;61.50
38488;DHT22;57384;51.986;4.458;2022-09-17T05:20:41;13.10;61.50
38488;DHT22;57384;51.986;4.458;2022-09-17T05:23:08;13.00;61.40
38488;DHT22;57384;51.986;4.458;2022-09-17T05:25:40;13.00;61.40
38488;DHT22;57384;51.986;4.458;2022-09-17T05:28:06;13.00;61.40
38488;DHT22;57384;51.986;4.458;2022-09-17T05:30:33;13.00;61.40
38488;DHT22;57384;51.986;4.458;2022-09-17T05:33:03;13.00;61.40
38488;DHT22;57384;51.986;4.458;2022-09-17T05:35:30;13.00;61.40
38488;DHT22;57384;51.986;4.458;2022-09-17T05:38:00;13.00;61.40
38488;DHT22;57384;51.986;4.458;2022-09-17T05:40:27;13.00;61.40
38488;DHT22;57384;51.986;4.458;2022-09-17T05:43:00;13.00;61.40
38488;DHT22;57384;51.986;4.458;2022-09-17T05:45:28;13.00;61.30
38488;DHT22;57384;51.986;4.458;2022-09-17T05:47:55;13.00;61.30
38488;DHT22;57384;51.986;4.458;2022-09-17T05:50:22;13.00;61.30
38488;DHT22;57384;51.986;4.458;2022-09-17T05:52:49;13.00;61.30
38488;DHT22;57384;51.986;4.458;2022-09-17T05:55:16;13.10;61.30
38488;DHT22;57384;51.986;4.458;2022-09-17T05:57:42;13.00;61.20
38488;DHT22;57384;51.986;4.458;2022-09-17T06:00:09;13.00;61.20
38488;DHT22;57384;51.986;4.458;2022-09-17T06:02:36;13.10;61.30
38488;DHT22;57384;51.986;4.458;2022-09-17T06:05:03;13.00;61.20
38488;DHT22;57384;51.986;4.458;2022-09-17T06:07:29;13.00;61.30
38488;DHT22;57384;51.986;4.458;2022-09-17T06:09:56;13.00;61.20
38488;DHT22;57384;51.986;4.458;2022-09-17T06:12:22;13.00;61.40
38488;DHT22;57384;51.986;4.458;2022-09-17T06:14:49;13.10;61.80
38488;DHT22;57384;51.986;4.458;2022-09-17T06:17:15;13.10;61.80
38488;DHT22;57384;51.986;4.458;2022-09-17T06:19:42;13.00;61.80
38488;DHT22;57384;51.986;4.458;2022-09-17T06:22:08;13.10;61.80
38488;DHT22;57384;51.986;4.458;2022-09-17T06:24:35;13.00;61.60
38488;DHT22;57384;51.986;4.458;2022-09-17T06:27:01;13.10;61.60
38488;DHT22;57384;51.986;4.458;2022-09-17T06:29:27;13.10;61.60
38488;DHT22;57384;51.986;4.458;2022-09-17T06:31:54;13.10;61.60
38488;DHT22;57384;51.986;4.458;2022-09-17T06:34:23;13.10;62.20
38488;DHT22;57384;51.986;4.458;2022-09-17T06:36:50;13.10;61.50
38488;DHT22;57384;51.986;4.458;2022-09-17T06:39:16;13.10;61.50
38488;DHT22;57384;51.986;4.458;2022-09-17T06:41:42;13.10;61.40
38488;DHT22;57384;51.986;4.458;2022-09-17T06:44:09;13.10;61.40
38488;DHT22;57384;51.986;4.458;2022-09-17T06:46:35;13.10;61.40
38488;DHT22;57384;51.986;4.458;2022-09-17T06:49:02;13.10;61.40
38488;DHT22;57384;51.986;4.458;2022-09-17T06:51:28;13.20;61.40
38488;DHT22;57384;51.986;4.458;2022-09-17T06:53:55;13.10;61.30
38488;DHT22;57384;51.986;4.458;2022-09-17T06:56:21;13.20;61.30
38488;DHT22;57384;51.986;4.458;2022-09-17T06:58:48;13.20;61.30
38488;DHT22;57384;51.986;4.458;2022-09-17T07:01:14;13.30;61.30
38488;DHT22;57384;51.986;4.458;2022-09-17T07:03:41;13.30;61.20
38488;DHT22;57384;51.986;4.458;2022-09-17T07:06:08;13.30;61.20
38488;DHT22;57384;51.986;4.458;2022-09-17T07:08:34;13.30;61.10
38488;DHT22;57384;51.986;4.458;2022-09-17T07:11:01;13.40;61.20
38488;DHT22;57384;51.986;4.458;2022-09-17T07:13:27;13.40;61.00
38488;DHT22;57384;51.986;4.458;2022-09-17T07:15:58;13.40;60.90
38488;DHT22;57384;51.986;4.458;2022-09-17T07:18:25;13.50;60.90
38488;DHT22;57384;51.986;4.458;2022-09-17T07:20:55;13.50;60.90
38488;DHT22;57384;51.986;4.458;2022-09-17T07:23:26;13.60;60.90
38488;DHT22;57384;51.986;4.458;2022-09-17T07:25:58;13.60;60.90
38488;DHT22;57384;51.986;4.458;2022-09-17T07:28:25;13.70;60.90
38488;DHT22;57384;51.986;4.458;2022-09-17T07:30:52;13.60;60.90
38488;DHT22;57384;51.986;4.458;2022-09-17T07:33:20;13.70;61.00
38488;DHT22;57384;51.986;4.458;2022-09-17T07:38:19;13.80;61.30
38488;DHT22;57384;51.986;4.458;2022-09-17T07:43:28;13.90;61.40
38488;DHT22;57384;51.986;4.458;2022-09-17T07:45:56;14.00;61.50
38488;DHT22;57384;51.986;4.458;2022-09-17T07:48:22;14.10;61.60
38488;DHT22;57384;51.986;4.458;2022-09-17T07:50:49;14.30;61.70
38488;DHT22;57384;51.986;4.458;2022-09-17T07:53:15;14.40;61.90
38488;DHT22;57384;51.986;4.458;2022-09-17T07:55:49;14.50;61.90
38488;DHT22;57384;51.986;4.458;2022-09-17T07:58:16;14.60;61.70
38488;DHT22;57384;51.986;4.458;2022-09-17T08:00:43;14.70;61.70
38488;DHT22;57384;51.986;4.458;2022-09-17T08:03:09;14.80;61.50
38488;DHT22;57384;51.986;4.458;2022-09-17T08:05:35;14.90;61.50
38488;DHT22;57384;51.986;4.458;2022-09-17T08:08:02;14.90;61.50
38488;DHT22;57384;51.986;4.458;2022-09-17T08:10:28;15.10;61.70
38488;DHT22;57384;51.986;4.458;2022-09-17T08:12:55;15.10;61.70
38488;DHT22;57384;51.986;4.458;2022-09-17T08:15:22;15.20;61.80
38488;DHT22;57384;51.986;4.458;2022-09-17T08:17:49;15.20;62.00
38488;DHT22;57384;51.986;4.458;2022-09-17T08:20:16;15.20;62.00
38488;DHT22;57384;51.986;4.458;2022-09-17T08:22:42;15.30;62.00
38488;DHT22;57384;51.986;4.458;2022-09-17T08:25:09;15.40;62.20
38488;DHT22;57384;51.986;4.458;2022-09-17T08:27:35;15.50;62.20
38488;DHT22;57384;51.986;4.458;2022-09-17T08:30:02;15.70;62.20
38488;DHT22;57384;51.986;4.458;2022-09-17T08:32:28;15.80;62.30
38488;DHT22;57384;51.986;4.458;2022-09-17T08:34:55;15.90;62.10
38488;DHT22;57384;51.986;4.458;2022-09-17T08:37:21;16.10;62.10
38488;DHT22;57384;51.986;4.458;2022-09-17T08:39:48;16.10;62.10
38488;DHT22;57384;51.986;4.458;2022-09-17T08:44:45;16.20;62.00
38488;DHT22;57384;51.986;4.458;2022-09-17T08:49:40;16.30;61.90
38488;DHT22;57384;51.986;4.458;2022-09-17T08:52:16;16.40;61.80
38488;DHT22;57384;51.986;4.458;2022-09-17T08:54:54;16.50;61.80
38488;DHT22;57384;51.986;4.458;2022-09-17T09:07:36;17.20;61.20
38488;DHT22;57384;51.986;4.458;2022-09-17T09:10:20;17.40;61.30
38488;DHT22;57384;51.986;4.458;2022-09-17T09:12:49;17.50;61.50
38488;DHT22;57384;51.986;4.458;2022-09-17T09:17:43;17.80;61.40
38488;DHT22;57384;51.986;4.458;2022-09-17T09:20:18;17.90;61.30
38488;DHT22;57384;51.986;4.458;2022-09-17T09:22:50;18.00;61.20
38488;DHT22;57384;51.986;4.458;2022-09-17T09:34:08;18.50;61.20
38488;DHT22;57384;51.986;4.458;2022-09-17T09:36:35;18.60;61.20
38488;DHT22;57384;51.986;4.458;2022-09-17T09:39:25;18.60;61.20
38488;DHT22;57384;51.986;4.458;2022-09-17T09:41:54;18.70;61.20
38488;DHT22;57384;51.986;4.458;2022-09-17T09:44:24;18.70;61.20
38488;DHT22;57384;51.986;4.458;2022-09-17T10:02:49;19.20;61.00
38488;DHT22;57384;51.986;4.458;2022-09-17T10:05:22;19.20;60.90
38488;DHT22;57384;51.986;4.458;2022-09-17T10:07:48;19.30;61.00
38488;DHT22;57384;51.986;4.458;2022-09-17T10:10:15;19.30;60.90
38488;DHT22;57384;51.986;4.458;2022-09-17T10:12:42;19.40;61.00
38488;DHT22;57384;51.986;4.458;2022-09-17T10:15:25;19.40;61.00
38488;DHT22;57384;51.986;4.458;2022-09-17T10:18:08;19.50;61.00
38488;DHT22;57384;51.986;4.458;2022-09-17T10:20:36;19.50;60.80
38488;DHT22;57384;51.986;4.458;2022-09-17T10:23:13;19.60;60.80
38488;DHT22;57384;51.986;4.458;2022-09-17T10:25:40;19.60;60.70
38488;DHT22;57384;51.986;4.458;2022-09-17T10:28:20;19.70;60.70
38488;DHT22;57384;51.986;4.458;2022-09-17T10:33:52;19.70;60.70
38488;DHT22;57384;51.986;4.458;2022-09-17T10:42:15;19.60;61.00
38488;DHT22;57384;51.986;4.458;2022-09-17T10:47:45;19.50;61.10
38488;DHT22;57384;51.986;4.458;2022-09-17T10:50:16;19.50;61.10
38488;DHT22;57384;51.986;4.458;2022-09-17T10:52:46;19.50;61.20
38488;DHT22;57384;51.986;4.458;2022-09-17T11:00:37;19.60;61.10
38488;DHT22;57384;51.986;4.458;2022-09-17T11:14:34;19.60;61.10
38488;DHT22;57384;51.986;4.458;2022-09-17T11:25:20;19.90;60.50
38488;DHT22;57384;51.986;4.458;2022-09-17T11:30:40;20.20;60.20
38488;DHT22;57384;51.986;4.458;2022-09-17T11:33:14;20.40;60.10
38488;DHT22;57384;51.986;4.458;2022-09-17T11:35:47;20.50;60.00
38488;DHT22;57384;51.986;4.458;2022-09-17T11:38:28;20.60;59.70
38488;DHT22;57384;51.986;4.458;2022-09-17T11:43:26;20.80;59.50
38488;DHT22;57384;51.986;4.458;2022-09-17T11:46:15;20.90;59.40
38488;DHT22;57384;51.986;4.458;2022-09-17T11:56:34;21.10;58.70
38488;DHT22;57384;51.986;4.458;2022-09-17T12:01:53;21.00;58.70
38488;DHT22;57384;51.986;4.458;2022-09-17T12:09:45;21.00;58.80
38488;DHT22;57384;51.986;4.458;2022-09-17T12:12:18;21.00;58.90
38488;DHT22;57384;51.986;4.458;2022-09-17T12:15:05;21.00;58.90
38488;DHT22;57384;51.986;4.458;2022-09-17T12:17:35;21.00;59.00
38488;DHT22;57384;51.986;4.458;2022-09-17T12:20:07;21.00;59.00
38488;DHT22;57384;51.986;4.458;2022-09-17T12:22:38;21.00;59.00
38488;DHT22;57384;51.986;4.458;2022-09-17T12:25:10;21.00;58.90
38488;DHT22;57384;51.986;4.458;2022-09-17T12:27:40;21.10;58.80
38488;DHT22;57384;51.986;4.458;2022-09-17T12:42:55;22.20;57.80
38488;DHT22;57384;51.986;4.458;2022-09-17T12:45:41;22.30;57.60
38488;DHT22;57384;51.986;4.458;2022-09-17T12:48:28;22.50;57.40
38488;DHT22;57384;51.986;4.458;2022-09-17T12:51:24;22.70;57.00
38488;DHT22;57384;51.986;4.458;2022-09-17T12:56:57;23.10;56.50
38488;DHT22;57384;51.986;4.458;2022-09-17T12:59:27;23.20;56.20
38488;DHT22;57384;51.986;4.458;2022-09-17T13:01:56;23.30;56.00
38488;DHT22;57384;51.986;4.458;2022-09-17T13:07:20;23.60;55.30
38488;DHT22;57384;51.986;4.458;2022-09-17T13:12:14;23.70;54.80
38488;DHT22;57384;51.986;4.458;2022-09-17T13:22:26;23.80;54.10
38488;DHT22;57384;51.986;4.458;2022-09-17T13:25:04;23.80;54.00
38488;DHT22;57384;51.986;4.458;2022-09-17T13:27:34;23.70;53.90
38488;DHT22;57384;51.986;4.458;2022-09-17T13:30:00;23.60;53.70
38488;DHT22;57384;51.986;4.458;2022-09-17T13:37:55;23.30;53.60
38488;DHT22;57384;51.986;4.458;2022-09-17T13:40:32;23.20;53.60
38488;DHT22;57384;51.986;4.458;2022-09-17T13:48:44;22.80;52.00
38488;DHT22;57384;51.986;4.458;2022-09-17T13:54:00;22.50;51.40
38488;DHT22;57384;51.986;4.458;2022-09-17T13:56:49;22.40;51.70
38488;DHT22;57384;51.986;4.458;2022-09-17T13:59:18;22.30;51.90
38488;DHT22;57384;51.986;4.458;2022-09-17T14:01:56;22.20;52.00
38488;DHT22;57384;51.986;4.458;2022-09-17T14:09:55;22.00;51.40
38488;DHT22;57384;51.986;4.458;2022-09-17T14:15:29;21.80;51.70
38488;DHT22;57384;51.986;4.458;2022-09-17T14:17:52;21.70;51.90
38488;DHT22;57384;51.986;4.458;2022-09-17T14:20:18;21.60;52.00
38488;DHT22;57384;51.986;4.458;2022-09-17T14:22:53;21.60;52.10
38488;DHT22;57384;51.986;4.458;2022-09-17T14:25:20;21.50;52.20
38488;DHT22;57384;51.986;4.458;2022-09-17T14:27:51;21.40;52.20
38488;DHT22;57384;51.986;4.458;2022-09-17T14:30:23;21.40;52.10
38488;DHT22;57384;51.986;4.458;2022-09-17T14:32:53;21.30;52.60
38488;DHT22;57384;51.986;4.458;2022-09-17T14:41:40;20.90;52.00
38488;DHT22;57384;51.986;4.458;2022-09-17T14:48:49;20.70;52.20
38488;DHT22;57384;51.986;4.458;2022-09-17T14:53:43;20.50;52.00
38488;DHT22;57384;51.986;4.458;2022-09-17T14:56:10;20.40;52.00
38488;DHT22;57384;51.986;4.458;2022-09-17T14:58:42;20.30;52.10
38488;DHT22;57384;51.986;4.458;2022-09-17T15:01:24;20.20;52.20
38488;DHT22;57384;51.986;4.458;2022-09-17T15:06:36;20.00;52.20
38488;DHT22;57384;51.986;4.458;2022-09-17T15:09:02;20.00;52.40
38488;DHT22;57384;51.986;4.458;2022-09-17T15:11:29;19.80;52.40
38488;DHT22;57384;51.986;4.458;2022-09-17T15:13:56;19.70;52.20
38488;DHT22;57384;51.986;4.458;2022-09-17T15:16:26;19.70;52.20
38488;DHT22;57384;51.986;4.458;2022-09-17T15:18:53;19.60;52.20
38488;DHT22;57384;51.986;4.458;2022-09-17T15:24:11;19.50;52.10
38488;DHT22;57384;51.986;4.458;2022-09-17T15:26:41;19.40;52.30
38488;DHT22;57384;51.986;4.458;2022-09-17T15:29:12;19.30;52.50
38488;DHT22;57384;51.986;4.458;2022-09-17T15:31:39;19.20;52.70
38488;DHT22;57384;51.986;4.458;2022-09-17T15:34:08;19.10;53.00
38488;DHT22;57384;51.986;4.458;2022-09-17T15:36:35;19.00;53.30
38488;DHT22;57384;51.986;4.458;2022-09-17T15:39:27;18.90;53.40
38488;DHT22;57384;51.986;4.458;2022-09-17T15:41:56;18.80;53.50
38488;DHT22;57384;51.986;4.458;2022-09-17T15:44:23;18.80;53.70
38488;DHT22;57384;51.986;4.458;2022-09-17T15:46:51;18.70;53.80
38488;DHT22;57384;51.986;4.458;2022-09-17T15:49:27;18.60;53.90
38488;DHT22;57384;51.986;4.458;2022-09-17T15:51:54;18.60;54.00
38488;DHT22;57384;51.986;4.458;2022-09-17T15:54:28;18.50;54.10
38488;DHT22;57384;51.986;4.458;2022-09-17T15:56:56;18.40;54.20
38488;DHT22;57384;51.986;4.458;2022-09-17T15:59:27;18.40;54.30
38488;DHT22;57384;51.986;4.458;2022-09-17T16:01:55;18.40;54.50
38488;DHT22;57384;51.986;4.458;2022-09-17T16:09:37;18.10;55.40
38488;DHT22;57384;51.986;4.458;2022-09-17T16:12:04;18.10;55.60
38488;DHT22;57384;51.986;4.458;2022-09-17T16:14:30;18.00;55.70
38488;DHT22;57384;51.986;4.458;2022-09-17T16:16:57;17.90;55.70
38488;DHT22;57384;51.986;4.458;2022-09-17T16:19:25;17.80;55.80
38488;DHT22;57384;51.986;4.458;2022-09-17T16:21:51;17.80;55.90
38488;DHT22;57384;51.986;4.458;2022-09-17T16:24:17;17.70;56.00
38488;DHT22;57384;51.986;4.458;2022-09-17T16:26:44;17.70;56.10
38488;DHT22;57384;51.986;4.458;2022-09-17T16:29:11;17.60;56.20
38488;DHT22;57384;51.986;4.458;2022-09-17T16:31:39;17.50;56.20
38488;DHT22;57384;51.986;4.458;2022-09-17T16:34:05;17.50;56.30
38488;DHT22;57384;51.986;4.458;2022-09-17T16:36:31;17.40;56.40
38488;DHT22;57384;51.986;4.458;2022-09-17T16:38:58;17.40;56.60
38488;DHT22;57384;51.986;4.458;2022-09-17T16:41:24;17.30;56.70
38488;DHT22;57384;51.986;4.458;2022-09-17T16:43:51;17.30;56.80
38488;DHT22;57384;51.986;4.458;2022-09-17T16:46:17;17.20;57.40
38488;DHT22;57384;51.986;4.458;2022-09-17T16:48:44;17.20;57.50
38488;DHT22;57384;51.986;4.458;2022-09-17T16:51:14;17.10;57.00
38488;DHT22;57384;51.986;4.458;2022-09-17T16:53:40;17.10;57.10
38488;DHT22;57384;51.986;4.458;2022-09-17T16:56:07;17.00;57.20
38488;DHT22;57384;51.986;4.458;2022-09-17T16:58:34;17.00;57.20
38488;DHT22;57384;51.986;4.458;2022-09-17T17:03:33;16.90;57.20
38488;DHT22;57384;51.986;4.458;2022-09-17T17:06:02;16.90;57.20
38488;DHT22;57384;51.986;4.458;2022-09-17T17:08:32;16.80;57.20
38488;DHT22;57384;51.986;4.458;2022-09-17T17:10:59;16.80;57.30
38488;DHT22;57384;51.986;4.458;2022-09-17T17:13:25;16.70;57.50
38488;DHT22;57384;51.986;4.458;2022-09-17T17:15:52;16.70;57.60
38488;DHT22;57384;51.986;4.458;2022-09-17T17:18:19;16.60;57.70
38488;DHT22;57384;51.986;4.458;2022-09-17T17:20:45;16.50;57.60
38488;DHT22;57384;51.986;4.458;2022-09-17T17:23:12;16.60;57.70
38488;DHT22;57384;51.986;4.458;2022-09-17T17:25:38;16.60;57.80
38488;DHT22;57384;51.986;4.458;2022-09-17T17:28:05;16.50;57.70
38488;DHT22;57384;51.986;4.458;2022-09-17T17:30:31;16.50;57.70
38488;DHT22;57384;51.986;4.458;2022-09-17T17:32:58;16.40;57.70
38488;DHT22;57384;51.986;4.458;2022-09-17T17:35:24;16.40;57.70
38488;DHT22;57384;51.986;4.458;2022-09-17T17:37:51;16.40;57.80
38488;DHT22;57384;51.986;4.458;2022-09-17T17:40:17;16.30;57.80
38488;DHT22;57384;51.986;4.458;2022-09-17T17:42:49;16.30;57.90
38488;DHT22;57384;51.986;4.458;2022-09-17T17:45:16;16.20;57.80
38488;DHT22;57384;51.986;4.458;2022-09-17T17:47:42;16.20;57.90
38488;DHT22;57384;51.986;4.458;2022-09-17T17:50:09;16.10;58.00
38488;DHT22;57384;51.986;4.458;2022-09-17T17:52:35;16.20;58.10
38488;DHT22;57384;51.986;4.458;2022-09-17T17:55:02;16.10;58.10
38488;DHT22;57384;51.986;4.458;2022-09-17T17:57:28;16.10;58.20
38488;DHT22;57384;51.986;4.458;2022-09-17T17:59:55;16.10;58.20
38488;DHT22;57384;51.986;4.458;2022-09-17T18:02:21;16.00;58.20
38488;DHT22;57384;51.986;4.458;2022-09-17T18:04:48;16.00;58.20
38488;DHT22;57384;51.986;4.458;2022-09-17T18:07:14;15.90;58.30
38488;DHT22;57384;51.986;4.458;2022-09-17T18:09:41;15.90;58.30
38488;DHT22;57384;51.986;4.458;2022-09-17T18:12:07;15.80;58.30
38488;DHT22;57384;51.986;4.458;2022-09-17T18:14:34;15.80;58.30
38488;DHT22;57384;51.986;4.458;2022-09-17T18:17:00;15.80;58.30
38488;DHT22;57384;51.986;4.458;2022-09-17T18:19:27;15.80;58.30
38488;DHT22;57384;51.986;4.458;2022-09-17T18:21:53;15.70;58.30
38488;DHT22;57384;51.986;4.458;2022-09-17T18:24:20;15.70;58.40
38488;DHT22;57384;51.986;4.458;2022-09-17T18:26:46;15.60;58.30
38488;DHT22;57384;51.986;4.458;2022-09-17T18:29:13;15.60;58.30
38488;DHT22;57384;51.986;4.458;2022-09-17T18:31:39;15.60;58.30
38488;DHT22;57384;51.986;4.458;2022-09-17T18:34:08;15.50;58.30
38488;DHT22;57384;51.986;4.458;2022-09-17T18:36:35;15.50;58.30
38488;DHT22;57384;51.986;4.458;2022-09-17T18:39:03;15.50;58.30
38488;DHT22;57384;51.986;4.458;2022-09-17T18:41:34;15.50;58.90
38488;DHT22;57384;51.986;4.458;2022-09-17T18:44:00;15.40;58.20
38488;DHT22;57384;51.986;4.458;2022-09-17T18:46:27;15.40;58.30
38488;DHT22;57384;51.986;4.458;2022-09-17T18:48:55;15.40;58.40
38488;DHT22;57384;51.986;4.458;2022-09-17T18:51:22;15.40;58.50
38488;DHT22;57384;51.986;4.458;2022-09-17T18:53:49;15.40;58.50
38488;DHT22;57384;51.986;4.458;2022-09-17T18:56:16;15.30;58.50
38488;DHT22;57384;51.986;4.458;2022-09-17T18:58:44;15.30;58.50
38488;DHT22;57384;51.986;4.458;2022-09-17T19:01:10;15.30;58.50
38488;DHT22;57384;51.986;4.458;2022-09-17T19:03:37;15.30;58.50
38488;DHT22;57384;51.986;4.458;2022-09-17T19:06:04;15.30;58.60
38488;DHT22;57384;51.986;4.458;2022-09-17T19:08:31;15.20;58.50
38488;DHT22;57384;51.986;4.458;2022-09-17T19:10:58;15.20;58.50
38488;DHT22;57384;51.986;4.458;2022-09-17T19:13:25;15.20;58.60
38488;DHT22;57384;51.986;4.458;2022-09-17T19:15:56;15.20;58.60
38488;DHT22;57384;51.986;4.458;2022-09-17T19:18:22;15.20;58.70
38488;DHT22;57384;51.986;4.458;2022-09-17T19:20:49;15.20;58.80
38488;DHT22;57384;51.986;4.458;2022-09-17T19:23:15;15.10;58.70
38488;DHT22;57384;51.986;4.458;2022-09-17T19:25:42;15.10;58.80
38488;DHT22;57384;51.986;4.458;2022-09-17T19:28:08;15.10;59.00
38488;DHT22;57384;51.986;4.458;2022-09-17T19:30:35;15.00;58.90